Time;durP1;ratioP1;P1;durP2;ratioP2;P2;SDS_P1;SDS_P2;PMS_P1;PMS_P2;Temp;Humidity;BMP_temperature;BMP_pressure;BME280_temperature;BME280_humidity;BME280_pressure;Samples;Min_cycle;Max_cycle;Signal;HPM_P1;HPM_P2
2023/01/24 00:02:08;;;;;;;80.97;22.63;;;;;;;;;;10318771;28;20034;-83
2023/01/24 00:07:09;;;;;;;76.50;20.37;;;;;;;;;;10321321;28;20486;-83
2023/01/24 00:12:10;;;;;;;58.67;18.57;;;;;;;;;;10320707;28;20034;-84
2023/01/24 00:17:11;;;;;;;58.40;19.67;;;;;;;;;;10317869;28;20038;-83
2023/01/24 00:22:12;;;;;;;63.97;19.23;;;;;;;;;;10321766;28;20022;-84
2023/01/24 00:27:13;;;;;;;76.60;20.70;;;;;;;;;;10320391;28;20031;-83
2023/01/24 00:32:14;;;;;;;59.23;17.87;;;;;;;;;;10304572;28;20042;-83
2023/01/24 00:37:15;;;;;;;68.53;18.53;;;;;;;;;;10320106;28;20868;-83
2023/01/24 00:42:16;;;;;;;71.10;19.80;;;;;;;;;;10312840;28;20034;-83
2023/01/24 00:47:17;;;;;;;59.60;19.40;;;;;;;;;;10311977;28;20038;-83
2023/01/24 00:52:18;;;;;;;57.40;18.27;;;;;;;;;;10315502;28;20658;-83
2023/01/24 00:57:21;;;;;;;67.90;18.33;;;;;;;;;;10317606;28;20030;-84
2023/01/24 01:02:22;;;;;;;68.53;18.10;;;;;;;;;;10313523;28;20069;-83
2023/01/24 01:07:24;;;;;;;67.40;21.40;;;;;;;;;;10306539;28;20037;-83
2023/01/24 01:12:25;;;;;;;72.57;19.07;;;;;;;;;;10323238;28;20039;-83
2023/01/24 01:17:27;;;;;;;59.80;17.57;;;;;;;;;;10312423;28;20034;-83
2023/01/24 01:22:28;;;;;;;65.23;16.77;;;;;;;;;;10327879;28;20061;-84
2023/01/24 01:27:29;;;;;;;60.83;16.33;;;;;;;;;;10342266;28;20030;-83
2023/01/24 01:32:30;;;;;;;65.07;19.90;;;;;;;;;;10314282;28;20599;-84
2023/01/24 01:37:31;;;;;;;54.73;17.30;;;;;;;;;;10326383;28;20049;-83
2023/01/24 01:42:45;;;;;;;74.00;18.93;;;;;;;;;;10320983;28;20034;-83
2023/01/24 01:47:46;;;;;;;72.67;18.77;;;;;;;;;;10318136;28;20093;-83
2023/01/24 01:52:47;;;;;;;62.30;17.40;;;;;;;;;;10326362;28;20117;-84
2023/01/24 01:57:49;;;;;;;61.63;18.47;;;;;;;;;;10325313;28;20746;-83
2023/01/24 02:02:52;;;;;;;63.70;18.53;;;;;;;;;;10320553;28;20607;-83
2023/01/24 02:08:01;;;;;;;67.87;19.10;;;;;;;;;;10306462;28;20038;-83
2023/01/24 02:13:02;;;;;;;73.30;20.60;;;;;;;;;;10325432;28;20470;-83
2023/01/24 02:18:03;;;;;;;83.77;17.50;;;;;;;;;;10338832;28;20038;-83
2023/01/24 02:23:13;;;;;;;67.47;18.03;;;;;;;;;;10321200;28;20093;-83
2023/01/24 02:28:14;;;;;;;92.23;19.83;;;;;;;;;;10313308;28;20065;-83
2023/01/24 02:33:17;;;;;;;68.07;19.70;;;;;;;;;;10312986;28;20100;-83
2023/01/24 02:38:19;;;;;;;84.87;21.77;;;;;;;;;;10323915;28;20162;-83
2023/01/24 02:43:22;;;;;;;88.30;20.17;;;;;;;;;;10313370;28;20030;-83
2023/01/24 02:48:23;;;;;;;73.27;18.60;;;;;;;;;;10316002;28;20030;-84
2023/01/24 02:53:31;;;;;;;72.90;20.00;;;;;;;;;;10334211;28;20042;-83
2023/01/24 02:58:32;;;;;;;65.33;18.43;;;;;;;;;;10315261;28;20045;-83
2023/01/24 03:03:33;;;;;;;69.63;20.50;;;;;;;;;;10319164;28;20501;-84
2023/01/24 03:08:34;;;;;;;66.23;17.23;;;;;;;;;;10323241;28;20045;-83
2023/01/24 03:34:54;;;;;;;73.40;20.50;;;;;;;;;;10309049;28;20046;-83
2023/01/24 03:39:58;;;;;;;83.17;20.53;;;;;;;;;;10310588;28;20034;-84
2023/01/24 03:44:59;;;;;;;61.20;16.57;;;;;;;;;;10321306;28;20635;-83
2023/01/24 03:55:20;;;;;;;67.70;19.87;;;;;;;;;;10321067;28;20509;-83
2023/01/24 04:00:21;;;;;;;56.03;16.73;;;;;;;;;;10318292;28;20109;-84
2023/01/24 04:05:22;;;;;;;69.40;18.03;;;;;;;;;;10306168;28;20724;-83
2023/01/24 04:10:23;;;;;;;57.93;18.03;;;;;;;;;;10318642;28;20680;-82
2023/01/24 04:15:26;;;;;;;95.37;18.73;;;;;;;;;;10320035;28;20128;-81
2023/01/24 04:20:28;;;;;;;55.33;15.73;;;;;;;;;;10317333;28;20030;-81
2023/01/24 04:25:29;;;;;;;53.67;14.57;;;;;;;;;;10310928;28;20837;-80
2023/01/24 04:30:30;;;;;;;60.97;16.33;;;;;;;;;;10315245;28;20461;-80
2023/01/24 04:35:31;;;;;;;65.90;17.27;;;;;;;;;;10313737;28;20041;-81
2023/01/24 04:40:32;;;;;;;67.10;18.60;;;;;;;;;;10320720;28;20033;-80
2023/01/24 04:45:33;;;;;;;62.37;15.03;;;;;;;;;;10312498;28;20122;-81
2023/01/24 04:50:34;;;;;;;55.30;15.20;;;;;;;;;;10314890;28;20990;-82
2023/01/24 04:55:36;;;;;;;51.60;15.63;;;;;;;;;;10323035;28;20084;-80
2023/01/24 05:00:37;;;;;;;46.23;14.13;;;;;;;;;;10312495;28;20035;-80
2023/01/24 05:05:38;;;;;;;50.53;12.83;;;;;;;;;;10310090;28;20072;-80
2023/01/24 05:10:39;;;;;;;42.13;10.57;;;;;;;;;;10318974;28;20031;-80
2023/01/24 05:15:45;;;;;;;50.33;15.40;;;;;;;;;;10316523;28;20092;-78
2023/01/24 05:20:46;;;;;;;49.83;12.80;;;;;;;;;;10318310;28;20046;-79
2023/01/24 05:25:47;;;;;;;39.23;10.97;;;;;;;;;;10316878;28;20034;-81
2023/01/24 05:30:48;;;;;;;38.50;12.13;;;;;;;;;;10312660;28;20089;-81
2023/01/24 05:35:50;;;;;;;44.93;12.80;;;;;;;;;;10317989;28;20026;-80
2023/01/24 05:40:51;;;;;;;33.93;10.63;;;;;;;;;;10305926;28;20504;-81
2023/01/24 05:45:56;;;;;;;35.33;10.70;;;;;;;;;;10318529;28;20041;-80
2023/01/24 05:50:58;;;;;;;24.10;8.87;;;;;;;;;;10317830;28;20449;-80
2023/01/24 05:56:01;;;;;;;33.00;9.40;;;;;;;;;;10318798;28;20032;-80
2023/01/24 06:01:02;;;;;;;28.10;10.30;;;;;;;;;;10325510;28;20477;-80
2023/01/24 06:06:03;;;;;;;32.83;11.23;;;;;;;;;;10325672;28;20033;-80
2023/01/24 06:11:05;;;;;;;33.30;10.57;;;;;;;;;;10324818;28;20034;-80
2023/01/24 06:16:11;;;;;;;26.93;8.87;;;;;;;;;;10324822;28;20031;-80
2023/01/24 06:21:15;;;;;;;34.70;9.40;;;;;;;;;;10324919;28;20034;-80
2023/01/24 06:26:16;;;;;;;31.27;8.30;;;;;;;;;;10324933;28;20273;-80
2023/01/24 06:31:31;;;;;;;25.17;10.07;;;;;;;;;;10339041;28;20038;-80
2023/01/24 06:36:32;;;;;;;25.57;8.63;;;;;;;;;;10324031;28;20117;-80
2023/01/24 06:41:33;;;;;;;31.83;9.27;;;;;;;;;;10324467;28;20033;-80
2023/01/24 06:46:34;;;;;;;36.23;11.80;;;;;;;;;;10324006;28;20496;-82
2023/01/24 06:51:35;;;;;;;37.97;11.80;;;;;;;;;;10323931;28;20066;-82
2023/01/24 06:56:36;;;;;;;45.40;12.53;;;;;;;;;;10323871;28;20027;-82
2023/01/24 07:01:37;;;;;;;35.00;12.73;;;;;;;;;;10322775;28;20113;-82
2023/01/24 07:06:38;;;;;;;50.10;12.40;;;;;;;;;;10323885;28;20041;-82
2023/01/24 07:11:39;;;;;;;37.50;11.50;;;;;;;;;;10322423;28;20811;-82
2023/01/24 07:16:40;;;;;;;47.17;14.30;;;;;;;;;;10322525;28;20038;-83
2023/01/24 07:21:41;;;;;;;56.63;15.10;;;;;;;;;;10323197;28;20030;-82
2023/01/24 07:26:43;;;;;;;51.40;12.40;;;;;;;;;;10322594;28;20033;-82
2023/01/24 07:31:44;;;;;;;57.93;15.03;;;;;;;;;;10337327;28;20164;-82
2023/01/24 07:36:46;;;;;;;78.53;17.77;;;;;;;;;;10308522;28;20561;-82
2023/01/24 07:41:47;;;;;;;73.23;18.23;;;;;;;;;;10326466;28;20034;-83
2023/01/24 07:46:48;;;;;;;60.13;15.80;;;;;;;;;;10329731;28;20406;-82
2023/01/24 07:51:49;;;;;;;83.00;17.97;;;;;;;;;;10321468;28;20062;-82
2023/01/24 07:56:51;;;;;;;82.40;17.07;;;;;;;;;;10321056;28;20062;-83
2023/01/24 08:01:52;;;;;;;84.30;19.70;;;;;;;;;;10320643;28;20121;-82
2023/01/24 08:12:13;;;;;;;87.33;20.17;;;;;;;;;;10320292;28;20042;-82
2023/01/24 08:17:14;;;;;;;89.80;21.77;;;;;;;;;;10321019;28;20076;-82
2023/01/24 08:22:15;;;;;;;115.43;26.67;;;;;;;;;;10319539;28;20041;-82
2023/01/24 08:27:16;;;;;;;97.23;22.57;;;;;;;;;;10335921;28;20030;-83
2023/01/24 08:32:17;;;;;;;75.77;19.63;;;;;;;;;;10320025;28;20030;-82
2023/01/24 08:37:18;;;;;;;87.23;21.43;;;;;;;;;;10319885;28;20691;-82
2023/01/24 08:42:19;;;;;;;84.47;19.63;;;;;;;;;;10320381;28;20141;-82
2023/01/24 08:47:20;;;;;;;81.00;19.13;;;;;;;;;;10319968;28;20037;-82
2023/01/24 08:52:21;;;;;;;78.37;16.57;;;;;;;;;;10320001;28;20133;-83
2023/01/24 08:57:22;;;;;;;113.03;23.57;;;;;;;;;;10320133;28;20242;-82
2023/01/24 09:02:23;;;;;;;80.63;17.57;;;;;;;;;;10319443;28;20604;-82
2023/01/24 09:07:24;;;;;;;99.10;19.73;;;;;;;;;;10319416;28;20028;-83
2023/01/24 09:12:25;;;;;;;92.80;19.90;;;;;;;;;;10319171;28;20034;-82
2023/01/24 09:17:27;;;;;;;89.43;17.70;;;;;;;;;;10320113;28;20054;-82
2023/01/24 09:22:28;;;;;;;72.50;18.33;;;;;;;;;;10319508;28;20029;-82
2023/01/24 09:27:29;;;;;;;90.07;18.83;;;;;;;;;;10334053;28;20018;-82
2023/01/24 09:32:30;;;;;;;74.50;20.93;;;;;;;;;;10320613;28;20038;-83
2023/01/24 09:37:31;;;;;;;86.10;18.40;;;;;;;;;;10326521;28;20393;-83
2023/01/24 09:42:39;;;;;;;88.83;18.73;;;;;;;;;;10326551;28;20038;-82
2023/01/24 09:47:46;;;;;;;95.10;19.07;;;;;;;;;;10341062;28;20069;-83
2023/01/24 09:52:48;;;;;;;86.50;17.47;;;;;;;;;;10313991;28;20058;-82
2023/01/24 09:57:49;;;;;;;75.57;19.23;;;;;;;;;;10326596;28;20030;-83
2023/01/24 10:02:51;;;;;;;83.67;17.73;;;;;;;;;;10339066;28;20367;-82
2023/01/24 10:07:57;;;;;;;92.90;23.80;;;;;;;;;;10325721;28;20030;-82
2023/01/24 10:13:11;;;;;;;86.27;19.20;;;;;;;;;;10325534;28;20065;-82
2023/01/24 10:18:12;;;;;;;62.87;16.60;;;;;;;;;;10325862;28;20558;-82
2023/01/24 10:23:16;;;;;;;96.03;21.97;;;;;;;;;;10339852;28;20040;-82
2023/01/24 10:28:23;;;;;;;86.27;20.00;;;;;;;;;;10325335;28;20041;-83
2023/01/24 10:33:26;;;;;;;71.43;18.33;;;;;;;;;;10325207;28;20038;-82
2023/01/24 10:38:28;;;;;;;84.57;17.80;;;;;;;;;;10321006;28;20019;-83
2023/01/24 10:43:32;;;;;;;60.47;17.47;;;;;;;;;;10314372;28;20026;-83
2023/01/24 10:48:35;;;;;;;71.30;18.17;;;;;;;;;;10323774;28;20057;-82
2023/01/24 10:53:36;;;;;;;66.23;15.43;;;;;;;;;;10324253;28;20093;-82
2023/01/24 10:58:42;;;;;;;67.33;15.47;;;;;;;;;;10323553;28;20381;-82
2023/01/24 11:03:44;;;;;;;72.90;16.73;;;;;;;;;;10323597;28;20037;-83
2023/01/24 11:08:46;;;;;;;64.70;15.70;;;;;;;;;;10322962;28;20542;-83
2023/01/24 11:13:47;;;;;;;67.27;16.87;;;;;;;;;;10322773;28;20042;-83
2023/01/24 11:18:48;;;;;;;48.17;14.27;;;;;;;;;;10323216;28;20018;-83
2023/01/24 11:24:02;;;;;;;65.30;15.30;;;;;;;;;;10322372;28;20037;-83
2023/01/24 11:29:05;;;;;;;44.43;13.90;;;;;;;;;;10322436;28;20077;-82
2023/01/24 11:34:22;;;;;;;51.80;15.53;;;;;;;;;;10321958;28;20505;-83
2023/01/24 11:39:28;;;;;;;51.47;15.60;;;;;;;;;;10322685;28;20042;-83
2023/01/24 11:44:53;;;;;;;66.88;17.48;;;;;;;;;;10321522;28;20022;-83
2023/01/24 11:50:20;;;;;;;77.20;20.17;;;;;;;;;;10321450;28;20046;-83
2023/01/24 11:55:30;;;;;;;67.20;18.60;;;;;;;;;;10335441;28;20488;-83
2023/01/24 12:00:34;;;;;;;62.63;17.43;;;;;;;;;;10321086;28;20025;-83
2023/01/24 12:05:41;;;;;;;64.67;15.50;;;;;;;;;;10321196;28;20561;-83
2023/01/24 12:10:42;;;;;;;73.77;16.80;;;;;;;;;;10321032;28;20049;-83
2023/01/24 12:16:05;;;;;;;59.83;15.63;;;;;;;;;;10321047;28;20474;-83
2023/01/24 12:21:10;;;;;;;56.37;14.77;;;;;;;;;;10321026;28;20061;-83
2023/01/24 12:26:15;;;;;;;47.70;14.43;;;;;;;;;;10335529;28;20035;-83
2023/01/24 12:31:19;;;;;;;40.23;11.27;;;;;;;;;;10309516;28;20047;-83
2023/01/24 12:36:29;;;;;;;45.77;15.50;;;;;;;;;;10319548;28;20039;-83
2023/01/24 12:41:32;;;;;;;39.97;15.10;;;;;;;;;;10320291;28;20034;-84
2023/01/24 12:46:39;;;;;;;51.63;15.17;;;;;;;;;;10320311;28;20433;-83
2023/01/24 12:51:43;;;;;;;166.67;63.30;;;;;;;;;;10320250;28;20100;-83
2023/01/24 12:56:48;;;;;;;56.77;16.80;;;;;;;;;;10327298;28;20117;-84
2023/01/24 13:02:05;;;;;;;54.85;22.40;;;;;;;;;;10324086;28;20756;-84
2023/01/24 13:07:06;;;;;;;95.43;40.27;;;;;;;;;;10322893;28;20080;-83
2023/01/24 13:12:13;;;;;;;88.00;32.80;;;;;;;;;;10324586;28;20095;-83
2023/01/24 13:17:39;;;;;;;96.43;41.20;;;;;;;;;;10331000;28;20033;-82
2023/01/24 13:22:55;;;;;;;66.13;20.95;;;;;;;;;;10321209;28;20395;-82
2023/01/24 13:28:06;;;;;;;398.27;174.57;;;;;;;;;;10325176;28;20046;-82
2023/01/24 13:33:11;;;;;;;328.93;135.60;;;;;;;;;;10313507;28;20057;-82
2023/01/24 13:38:35;;;;;;;139.15;61.83;;;;;;;;;;10318034;28;20670;-83
2023/01/24 13:43:36;;;;;;;339.80;120.03;;;;;;;;;;10316261;28;20128;-83
2023/01/24 13:48:54;;;;;;;138.43;79.13;;;;;;;;;;10321535;28;20069;-82
2023/01/24 13:54:13;;;;;;;68.50;24.50;;;;;;;;;;10326338;28;20046;-82
2023/01/24 13:59:14;;;;;;;198.60;76.30;;;;;;;;;;10321915;28;20045;-82
2023/01/24 14:04:15;;;;;;;303.10;112.60;;;;;;;;;;10327907;28;20043;-82
2023/01/24 14:09:27;;;;;;;849.93;391.83;;;;;;;;;;10325794;28;20418;-83
2023/01/24 14:14:33;;;;;;;663.77;295.80;;;;;;;;;;10323573;28;20814;-83
2023/01/24 14:19:36;;;;;;;107.57;48.35;;;;;;;;;;10312933;28;20125;-83
2023/01/24 14:24:42;;;;;;;348.83;153.90;;;;;;;;;;10314885;28;20030;-83
2023/01/24 14:29:43;;;;;;;;;;;;;;;;;;10324612;28;20026;-82
2023/01/24 14:34:47;;;;;;;67.50;31.73;;;;;;;;;;10313880;28;19925;-83
2023/01/24 14:39:48;;;;;;;66.10;24.57;;;;;;;;;;10321609;28;20421;-83
2023/01/24 14:44:52;;;;;;;63.20;28.90;;;;;;;;;;10332874;28;20030;-83
2023/01/24 14:49:54;;;;;;;272.10;110.03;;;;;;;;;;10324092;28;20046;-83
2023/01/24 14:54:55;;;;;;;116.67;49.67;;;;;;;;;;10313596;28;20114;-83
2023/01/24 14:59:59;;;;;;;119.77;53.03;;;;;;;;;;10315216;28;20038;-83
2023/01/24 15:05:00;;;;;;;79.87;30.73;;;;;;;;;;10329491;28;20041;-83
2023/01/24 15:10:01;;;;;;;106.00;43.07;;;;;;;;;;10323230;28;20034;-83
2023/01/24 15:15:04;;;;;;;68.87;27.47;;;;;;;;;;10319123;28;20604;-83
2023/01/24 15:20:10;;;;;;;44.30;16.83;;;;;;;;;;10310104;28;20117;-83
2023/01/24 15:25:22;;;;;;;50.20;15.93;;;;;;;;;;10314493;28;20027;-83
2023/01/24 15:30:23;;;;;;;55.77;16.30;;;;;;;;;;10315469;28;20513;-84
2023/01/24 15:35:24;;;;;;;46.73;14.10;;;;;;;;;;10310839;28;20478;-88
2023/01/24 15:40:25;;;;;;;50.20;20.27;;;;;;;;;;10321848;28;20114;-83
2023/01/24 15:45:26;;;;;;;58.77;16.47;;;;;;;;;;10319483;28;20037;-83
2023/01/24 15:55:47;;;;;;;31.93;11.37;;;;;;;;;;10321911;28;20034;-83
2023/01/24 16:00:52;;;;;;;39.97;12.23;;;;;;;;;;10315484;28;20777;-83
2023/01/24 16:05:53;;;;;;;39.55;15.20;;;;;;;;;;10327022;28;20565;-81
2023/01/24 16:10:57;;;;;;;25.87;9.63;;;;;;;;;;10320792;28;20591;-83
2023/01/24 16:15:59;;;;;;;25.20;9.93;;;;;;;;;;10308995;28;20018;-83
2023/01/24 16:21:00;;;;;;;25.70;10.70;;;;;;;;;;10318491;28;20034;-83
2023/01/24 16:26:01;;;;;;;24.77;9.47;;;;;;;;;;10310728;28;20093;-83
2023/01/24 16:31:03;;;;;;;22.77;8.97;;;;;;;;;;10315363;28;20039;-83
2023/01/24 16:36:04;;;;;;;28.67;10.60;;;;;;;;;;10314466;28;20661;-83
2023/01/24 16:41:05;;;;;;;23.40;7.67;;;;;;;;;;10315235;28;20834;-84
2023/01/24 16:46:15;;;;;;;26.87;8.93;;;;;;;;;;10322072;28;20081;-82
2023/01/24 16:51:17;;;;;;;25.00;8.90;;;;;;;;;;10309132;28;20065;-83
2023/01/24 16:56:19;;;;;;;24.03;9.67;;;;;;;;;;10311075;28;20050;-83
2023/01/24 17:01:20;;;;;;;29.83;11.17;;;;;;;;;;10317833;28;20042;-84
2023/01/24 17:06:22;;;;;;;49.67;19.33;;;;;;;;;;10322302;28;20061;-83
2023/01/24 17:11:23;;;;;;;65.83;23.73;;;;;;;;;;10319840;28;20034;-83
2023/01/24 17:16:24;;;;;;;91.07;32.13;;;;;;;;;;10296240;28;20081;-83
2023/01/24 17:21:25;;;;;;;42.70;15.63;;;;;;;;;;10335368;28;20544;-84
2023/01/24 17:26:26;;;;;;;32.77;14.07;;;;;;;;;;10336398;28;20035;-84
2023/01/24 17:31:27;;;;;;;33.17;10.50;;;;;;;;;;10308192;28;20578;-83
2023/01/24 17:36:28;;;;;;;22.93;8.53;;;;;;;;;;10309022;28;20023;-84
2023/01/24 17:41:29;;;;;;;21.10;8.73;;;;;;;;;;10289383;28;20034;-82
2023/01/24 17:46:30;;;;;;;22.20;8.87;;;;;;;;;;10311100;28;20026;-82
2023/01/24 17:51:35;;;;;;;24.10;10.17;;;;;;;;;;10303525;28;20074;-82
2023/01/24 17:56:36;;;;;;;31.47;14.73;;;;;;;;;;10312506;28;20472;-83
2023/01/24 18:01:37;;;;;;;38.20;17.37;;;;;;;;;;10323453;28;20049;-82
2023/01/24 18:06:38;;;;;;;34.60;12.13;;;;;;;;;;10323136;28;20560;-84
2023/01/24 18:11:39;;;;;;;31.73;11.83;;;;;;;;;;10323332;28;20764;-82
2023/01/24 18:16:40;;;;;;;27.70;11.00;;;;;;;;;;10297373;28;20045;-83
2023/01/24 18:21:41;;;;;;;25.40;9.87;;;;;;;;;;10300561;28;20031;-83
2023/01/24 18:26:42;;;;;;;37.10;12.47;;;;;;;;;;10331597;23;20259;-83
2023/01/24 18:31:44;;;;;;;39.73;12.97;;;;;;;;;;10317033;28;20548;-83
2023/01/24 18:36:45;;;;;;;28.30;11.33;;;;;;;;;;10314661;28;20026;-82
2023/01/24 18:41:46;;;;;;;30.47;9.67;;;;;;;;;;10321868;28;20462;-81
2023/01/24 18:46:46;;;;;;;69.23;26.27;;;2.70;99.90;;;;;;10306302;28;20045;-82
2023/01/24 18:51:49;;;;;;;48.90;19.27;;;2.70;99.90;;;;;;10300114;28;20050;-83
2023/01/24 18:56:51;;;;;;;145.70;65.60;;;2.70;99.90;;;;;;10291973;28;20042;-84
2023/01/24 19:01:52;;;;;;;59.43;27.80;;;2.70;99.90;;;;;;10277840;28;20038;-82
2023/01/24 19:06:54;;;;;;;55.03;23.10;;;2.60;99.90;;;;;;10277402;28;20031;-82
2023/01/24 19:11:55;;;;;;;60.37;26.10;;;2.60;99.90;;;;;;10281195;28;20051;-83
2023/01/24 19:16:56;;;;;;;39.47;16.07;;;2.60;99.90;;;;;;10281388;28;20602;-82
2023/01/24 19:21:56;;;;;;;36.00;13.93;;;1.80;99.90;;;;;;10285271;28;20126;-83
2023/01/24 19:26:57;;;;;;;25.77;12.00;;;2.60;99.90;;;;;;10276567;28;20142;-83
2023/01/24 19:31:58;;;;;;;27.47;11.00;;;2.60;99.90;;;;;;10277741;28;20110;-85
2023/01/24 19:36:58;;;;;;;26.30;11.77;;;2.60;99.90;;;;;;10244229;28;20035;-88
2023/01/24 19:42:00;;;;;;;35.63;12.83;;;2.60;99.90;;;;;;10262475;28;20054;-86
2023/01/24 19:47:01;;;;;;;35.07;11.23;;;2.60;99.90;;;;;;10265539;28;20653;-87
2023/01/24 19:52:01;;;;;;;60.80;22.27;;;2.60;99.90;;;;;;10280771;28;20035;-86
2023/01/24 19:57:02;;;;;;;31.83;13.50;;;2.60;99.90;;;;;;10267979;28;20031;-87
2023/01/24 20:02:03;;;;;;;24.80;10.13;;;2.60;99.90;;;;;;10284316;28;20058;-84
2023/01/24 20:07:04;;;;;;;21.33;8.60;;;2.60;99.90;;;;;;10277900;28;20031;-84
2023/01/24 20:12:05;;;;;;;34.10;13.17;;;2.60;99.90;;;;;;10268172;28;20491;-83
2023/01/24 20:17:05;;;;;;;38.97;16.47;;;2.60;99.90;;;;;;10305797;28;20729;-83
2023/01/24 20:22:08;;;;;;;48.53;21.80;;;2.60;99.90;;;;;;10320452;28;20026;-83
2023/01/24 20:27:08;;;;;;;28.10;12.53;;;2.60;99.90;;;;;;10312910;28;20162;-84
2023/01/24 20:32:09;;;;;;;29.27;12.10;;;2.60;99.90;;;;;;10277263;28;20039;-85
2023/01/24 20:37:10;;;;;;;29.70;12.43;;;2.60;99.90;;;;;;10299999;28;20034;-83
2023/01/24 20:42:11;;;;;;;26.67;11.10;;;2.60;99.90;;;;;;10314863;28;20043;-83
2023/01/24 20:47:20;;;;;;;72.63;21.53;;;2.60;99.90;;;;;;10308390;28;20514;-84
2023/01/24 20:52:21;;;;;;;50.80;18.97;;;2.60;99.90;;;;;;10309892;28;20660;-84
2023/01/24 20:57:23;;;;;;;51.50;18.00;;;2.60;99.90;;;;;;10292503;28;20049;-83
2023/01/24 21:02:24;;;;;;;27.33;11.63;;;2.60;99.90;;;;;;10301806;28;20057;-83
2023/01/24 21:07:24;;;;;;;35.23;11.03;;;2.60;99.90;;;;;;10310316;28;20026;-85
2023/01/24 21:12:25;;;;;;;77.33;21.20;;;2.50;99.90;;;;;;10308317;28;20074;-83
2023/01/24 21:17:29;;;;;;;82.83;28.83;;;2.50;99.90;;;;;;10295469;28;20034;-83
2023/01/24 21:22:30;;;;;;;73.03;26.33;;;2.50;99.90;;;;;;10301039;28;20057;-83
2023/01/24 21:27:31;;;;;;;46.13;16.47;;;2.50;99.90;;;;;;10310341;28;20054;-83
2023/01/24 21:32:31;;;;;;;35.10;12.90;;;2.50;99.90;;;;;;10305500;28;20663;-83
2023/01/24 21:37:32;;;;;;;35.40;12.53;;;2.50;99.90;;;;;;10322581;28;20065;-83
2023/01/24 21:42:32;;;;;;;45.10;14.13;;;2.50;99.90;;;;;;10303466;28;20089;-84
2023/01/24 21:47:33;;;;;;;46.63;15.90;;;2.50;99.90;;;;;;10313149;28;20802;-84
2023/01/24 21:52:33;;;;;;;48.53;18.77;;;2.40;99.90;;;;;;10325421;28;20073;-83
2023/01/24 22:03:23;;;;;;;36.37;12.53;;;2.50;99.90;;;;;;10298246;28;20038;-85
2023/01/24 22:08:13;;;;;;;31.73;11.37;;;2.50;99.90;;;;;;10323955;28;20412;-83
2023/01/24 22:13:14;;;;;;;47.43;11.90;;;2.40;99.90;;;;;;10310539;28;20048;-83
2023/01/24 22:18:15;;;;;;;38.00;13.80;;;2.40;99.90;;;;;;10316912;28;20470;-83
2023/01/24 22:23:30;;;;;;;37.93;11.93;;;2.40;99.90;;;;;;10324594;28;20036;-83
2023/01/24 22:28:30;;;;;;;30.03;11.10;;;2.30;99.90;;;;;;10314351;28;20584;-85
2023/01/24 22:33:31;;;;;;;34.80;12.50;;;2.40;99.90;;;;;;10310203;28;20129;-83
2023/01/24 22:38:32;;;;;;;44.47;14.47;;;2.30;99.90;;;;;;10322155;28;20061;-83
2023/01/24 22:43:34;;;;;;;50.30;16.30;;;2.40;99.90;;;;;;10293391;28;20054;-84
2023/01/24 22:48:34;;;;;;;38.93;15.50;;;2.40;99.90;;;;;;10307561;28;20109;-84
2023/01/24 22:53:35;;;;;;;34.13;14.43;;;2.40;99.90;;;;;;10323385;28;20129;-83
2023/01/24 22:58:35;;;;;;;34.43;13.40;;;2.30;99.90;;;;;;10318051;28;20106;-83
2023/01/24 23:03:36;;;;;;;40.30;12.67;;;2.30;99.90;;;;;;10302054;28;20042;-85
2023/01/24 23:08:36;;;;;;;35.83;11.47;;;2.20;99.90;;;;;;10319752;28;20433;-83
2023/01/24 23:24:17;;;;;;;38.93;11.47;;;2.20;99.90;;;;;;10298149;28;20058;-85
2023/01/24 23:29:37;;;;;;;42.03;15.13;;;2.20;99.90;;;;;;10312529;28;20023;-85
2023/01/24 23:34:39;;;;;;;41.57;13.20;;;2.20;99.90;;;;;;10305839;28;20089;-84
2023/01/24 23:39:40;;;;;;;45.67;14.90;;;2.20;99.90;;;;;;10319261;28;20030;-84
2023/01/24 23:44:40;;;;;;;48.33;15.53;;;2.20;99.90;;;;;;10314001;28;20041;-85
2023/01/24 23:49:42;;;;;;;43.90;14.27;;;2.20;99.90;;;;;;10311687;28;20474;-86
2023/01/24 23:54:43;;;;;;;43.10;15.27;;;2.30;99.90;;;;;;10290864;28;20038;-83
2023/01/24 23:59:43;;;;;;;38.63;13.10;;;2.30;99.90;;;;;;10298449;28;20027;-84
